Nearby METAR Reports

 

KSJC - San Jose, California, USA
Distance from station: NE 9mi, 14km
Updated: Tue, 11-Aug-2020 3:53pm CDT
Clear
Clear
 Wind from NNW
Wind: NNW 13 mph , 20 km/h
Temperature: 79°F , 26°C
Dew Point: 57°F , 14°C
Humidity: 48%
Barometer: 29.92 inHg , 1013.2 hPa
Clouds: Clear
Visibility: 10 miles , 16 km
2020/08/11 20:53 KSJC 112053Z 33011KT 10SM CLR 26/14 A2992 RMK AO2 SLP130 T02610144 58007 $
KNUQ - Moffett Nas/Mtn, California, USA
Distance from station: N 9mi, 14km
Updated: Tue, 11-Aug-2020 8:55am CDT
NOT Current
Mostly cloudy
Mostly cloudy
 Wind from ESE
Wind: ESE 5 mph , 7 km/h
Temperature: 63°F , 17°C
Dew Point: 57°F , 14°C
Humidity: 83%
Barometer: 29.92 inHg , 1013.2 hPa
Clouds: Mostly cloudy
Visibility: 9 miles , 14 km
Cloud details: Mostly cloudy 1400 ft
2020/08/11 13:55 KNUQ 111355Z AUTO 11004KT 9SM BKN014 17/14 A2992 RMK AO2
 
KPAO - Palo Alto, California, USA
Distance from station: NNW 14mi, 23km
Updated: Tue, 11-Aug-2020 3:47pm CDT
Clear
Clear
 Wind from N
Wind: N 15 mph , 24 km/h
Temperature: 72°F , 22°C
Dew Point: 61°F , 16°C
Humidity: 69%
Barometer: 29.94 inHg , 1013.9 hPa
Clouds: Clear
Visibility: 10 miles , 16 km
2020/08/11 20:47 KPAO 112047Z 36013KT 10SM SKC 22/16 A2994
KRHV - San Jose/Reid, California, USA
Distance from station: ENE 12mi, 19km
Updated: Tue, 11-Aug-2020 3:47pm CDT
Clear
Clear
 Wind from WNW
Wind: WNW 9 mph , 15 km/h
Temperature: 81°F , 27°C
Heat Index: 81°F , 27°C
Dew Point: 57°F , 14°C
Humidity: 45%
Barometer: 29.91 inHg , 1012.9 hPa
Clouds: Clear
Visibility: 10 miles , 16 km
2020/08/11 20:47 KRHV 112047Z 29008KT 10SM SKC 27/14 A2991
 
KOAK - Oakland, California, USA
Distance from station: NNW 31mi, 50km
Updated: Tue, 11-Aug-2020 3:53pm CDT
Few Clouds
Few Clouds
 Wind from NW
Wind: NW 15 mph , 24 km/h
Temperature: 72°F , 22°C
Dew Point: 57°F , 14°C
Humidity: 61%
Barometer: 29.95 inHg , 1014.2 hPa
Clouds: Few Clouds
Visibility: 10 miles , 16 km
Cloud details: Few Clouds 1000 ft
2020/08/11 20:53 KOAK 112053Z 31013KT 10SM FEW010 22/14 A2995 RMK AO2 SLP142 T02220144 58005
KSQL - San Carlos Airpo, California, USA
Distance from station: NW 21mi, 34km
Updated: Tue, 11-Aug-2020 3:47pm CDT
Clear
Clear
 Wind from WNW
Wind: WNW 8 mph , 13 km/h
Temperature: 73°F , 23°C
Dew Point: 57°F , 14°C
Humidity: 57%
Barometer: 29.94 inHg , 1013.9 hPa
Clouds: Clear
Visibility: 10 miles , 16 km
2020/08/11 20:47 KSQL 112047Z 29007KT 10SM SKC 23/14 A2994
 
KSFO - San Francisco, California, USA
Distance from station: NW 30mi, 49km
Updated: Tue, 11-Aug-2020 3:56pm CDT
Few Clouds
Few Clouds
 Wind from WNW
Wind: WNW 20 mph , 31 km/h, Gust: 30 mph , 48 km/h
Temperature: 73°F , 23°C
Dew Point: 55°F , 13°C
Humidity: 53%
Barometer: 29.93 inHg , 1013.5 hPa
Clouds: Few Clouds
Visibility: 10 miles , 16 km
Cloud details: Few Clouds 900 ft
Few Clouds 3500 ft
2020/08/11 20:56 KSFO 112056Z 29017G26KT 10SM FEW009 FEW035 23/13 A2993 RMK AO2 PK WND 30026/2047 SLP134 T02330128 58008
KE16 - San Martin, California, USA
Distance from station: ESE 27mi, 43km
Updated: Tue, 11-Aug-2020 4:10pm CDT
Clear
Clear
 Wind from SSW
Wind: SSW 7 mph , 11 km/h
Temperature: 81°F , 27°C
Heat Index: 81°F , 27°C
Dew Point: 55°F , 13°C
Humidity: 42%
Barometer: 29.92 inHg , 1013.2 hPa
Clouds: Clear
Visibility: 10 miles , 16 km
2020/08/11 21:10 KE16 112110Z AUTO 21006KT 10SM CLR 27/13 A2992 RMK AO2 PWINO PNO
 
KWVI - Watsonville, California, USA
Distance from station: SSE 27mi, 44km
Updated: Tue, 11-Aug-2020 3:53pm CDT
Clear
Clear
 Wind from W
Wind: W 9 mph , 15 km/h
Temperature: 32°F , 0°C
Wind Chill: 24°F , -4°C
Dew Point: 32°F , 0°C
Humidity: 100%
Barometer: 29.96 inHg , 1014.6 hPa
Clouds: Clear
Visibility: 10 miles , 16 km
2020/08/11 20:53 KWVI 112053Z AUTO 26008KT 10SM CLR 00/00 A2996 RMK AO2 SLP143 T00000000 58014 $
KHAF - Half Moon Bay, California, USA
Distance from station: WNW 31mi, 50km
Updated: Tue, 11-Aug-2020 4:15pm CDT
Overcast
Overcast
 Wind from S
Wind: S 7 mph , 11 km/h
Temperature: 64°F , 18°C
Dew Point: 57°F , 14°C
Humidity: 78%
Barometer: 29.98 inHg , 1015.2 hPa
Clouds: Overcast
Visibility: 8 miles , 13 km
Cloud details: Overcast 1300 ft
2020/08/11 21:15 KHAF 112115Z AUTO 19006KT 8SM OVC013 18/14 A2998 RMK AO2
 
KHWD - Hayward, California, USA
Distance from station: N 28mi, 44km
Updated: Tue, 11-Aug-2020 3:54pm CDT
Clear
Clear
 Wind from NW
Wind: NW 16 mph , 26 km/h
Temperature: 75°F , 24°C
Dew Point: 55°F , 13°C
Humidity: 50%
Barometer: 29.93 inHg , 1013.5 hPa
Clouds: Clear
Visibility: 10 miles , 16 km
2020/08/11 20:54 KHWD 112054Z 31014KT 10SM CLR 24/13 A2993 RMK AO2 SLP145 T02390133 58006
KLVK - Livermore, California, USA
Distance from station: NNE 31mi, 51km
Updated: Tue, 11-Aug-2020 3:53pm CDT
Clear
Clear
 Wind from NW
Wind: NW 16 mph , 26 km/h
Temperature: 82°F , 28°C
Heat Index: 81°F , 27°C
Dew Point: 55°F , 13°C
Humidity: 40%
Barometer: 29.90 inHg , 1012.5 hPa
Clouds: Clear
Visibility: 10 miles , 16 km
2020/08/11 20:53 KLVK 112053Z 31014KT 10SM CLR 28/13 A2990 RMK AO2 SLP120 T02780128 58009